Terminal Aerodrome Forecast
Issued by NWS

Home | Current Version | Previous Version | Text Only | Print | Product List | Glossary On
Versions: 1 2 3 4 5 6 7 8 9 10 11 12 13 14 15 16 17 18 19 20 21 22 23 24
000
FTUS41 KCTP 250526
TAFJST
TAF
KJST 250526Z 2506/2606 13006KT P6SM BKN250
     FM251400 15010G16KT P6SM VCSH BKN050 OVC120
     FM251700 16010G19KT 5SM -SHRA BR OVC025
     FM260000 23010KT 4SM -SHRA BR OVC004
     FM260400 29012G20KT P6SM OVC007=

USA.gov is the U.S. government's official web portal to all federal, state and local government web resources and services.